METAR Data
IDs: Format: Raw Decoded Include TAF

Data at: 1645 UTC 03 Dec 2021

KLGD 031556Z AUTO 08003KT M1/4SM FZFG VV002 M04/M04 A3024 RMK AO2 SLP262 T10391039 FZRANO
KLGD 031553Z AUTO 08004KT 1/4SM FZFG VV002 M04/M04 A3024 RMK AO2 FZRANO
KLGD 031545Z AUTO 09003KT 1/2SM FZFG VV002 M03/M03 A3024 RMK AO2 FZRANO
KLGD 031523Z AUTO 00000KT 1/4SM FZFG CLR M03/M03 A3024 RMK AO2 FZRANO
KLGD 031505Z AUTO 28003KT M1/4SM FZFG VV002 M03/M03 A3023 RMK AO2 FZRANO
KLGD 031456Z AUTO 00000KT 1/4SM FZFG VV001 M03/M03 A3023 RMK AO2 SLP257 T10281033 53003 FZRANO
KLGD 031446Z AUTO 19003KT 1/4SM FZFG BKN001 M03/M03 A3023 RMK AO2 FZRANO
KLGD 031432Z AUTO 18004KT 1/2SM FZFG VV001 M03/M04 A3023 RMK AO2 FZRANO
KLGD 031424Z AUTO 18003KT 1/4SM FZFG VV001 M03/M04 A3023 RMK AO2 FZRANO
KLGD 031416Z AUTO 00000KT 1/4SM FZFG CLR M03/M04 A3023 RMK AO2 FZRANO
KLGD 031408Z AUTO 00000KT 1/4SM FZFG VV002 M03/M04 A3023 RMK AO2 FZRANO
KLGD 031400Z AUTO 02004KT 1/2SM FZFG VV002 M04/M04 A3023 RMK AO2 FZRANO
KLGD 031356Z AUTO 01005KT 3/4SM BR CLR M03/M04 A3023 RMK AO2 SLP255 T10331044 FZRANO
KLGD 031343Z AUTO 04004KT 1/2SM FZFG CLR M03/M04 A3023 RMK AO2 FZRANO
KLGD 031327Z AUTO 00000KT 1/4SM FZFG VV002 M03/M03 A3022 RMK AO2 FZRANO
KLGD 031306Z AUTO 32005KT 1/4SM FZFG VV001 M03/M03 A3022 RMK AO2 FZRANO
KLGD 031256Z AUTO 00000KT 3/4SM BR CLR M03/M03 A3022 RMK AO2 SLP249 T10281033 FZRANO
KLGD 031252Z AUTO 00000KT 1/2SM FZFG CLR M03/M03 A3021 RMK AO2 FZRANO
KLGD 031239Z AUTO 14003KT 1SM BR CLR M02/M03 A3021 RMK AO2 VIS 1/4V5 FZRANO
KLGD 031229Z AUTO 00000KT 1/2SM FZFG CLR M02/M02 A3021 RMK AO2 VIS 1/4V4 FZRANO
KLGD 031214Z AUTO 16003KT 1SM BR CLR M02/M02 A3022 RMK AO2 VIS 1/4V5 FZRANO
KLGD 031156Z AUTO 00000KT 10SM CLR M02/M02 A3022 RMK AO2 SLP247 T10221022 10033 21022 58001 FZRANO
KLGD 031120Z AUTO 00000KT 3SM BR CLR M01/M02 A3022 RMK AO2 FZRANO
KLGD 031117Z AUTO 00000KT 1 1/4SM BR CLR M01/M02 A3022 RMK AO2 VIS 1/2V5 FZRANO
KLGD 031111Z AUTO 00000KT 3/4SM BR CLR M01/M02 A3023 RMK AO2 VIS 1/2V5 FZRANO
KLGD 031106Z AUTO 00000KT 1 3/4SM BR CLR M01/M02 A3023 RMK AO2 VIS 1/2V5 FZRANO
KLGD 031056Z AUTO 00000KT 3SM BR CLR M01/M02 A3024 RMK AO2 SLP250 T10111017 FZRANO
KLGD 030956Z AUTO 00000KT 10SM CLR 00/M01 A3023 RMK AO2 SLP246 T00001011 FZRANO
KLGD 030856Z AUTO 00000KT 10SM CLR 01/00 A3022 RMK AO2 SLP242 T00060000 58003 FZRANO
KLGD 030756Z AUTO 00000KT 10SM CLR 02/01 A3023 RMK AO2 SLP244 T00220011 401390017 FZRANO
KLGD 030656Z AUTO 00000KT 10SM CLR 02/01 A3024 RMK AO2 SLP247 T00220011 FZRANO
KLGD 030556Z AUTO 00000KT 10SM CLR 03/02 A3023 RMK AO2 SLP245 T00330017 10106 20028 52005
KLGD 030456Z AUTO 34006KT 10SM CLR 06/03 A3022 RMK AO2 SLP241 T00610033
KLGD 030356Z AUTO 22006KT 10SM CLR 06/03 A3022 RMK AO2 SLP241 T00560028
KLGD 030256Z AUTO 30008KT 10SM CLR 06/03 A3021 RMK AO2 SLP240 T00610033 51012
KLGD 030156Z AUTO 30005KT 10SM CLR 08/03 A3020 RMK AO2 SLP234 T00780033
KLGD 030056Z AUTO 27007KT 10SM CLR 08/03 A3019 RMK AO2 SLP228 T00830033
KLGD 022356Z AUTO 29008KT 10SM CLR 11/04 A3018 RMK AO2 SLP220 T01060039 10139 20106 53002
KLGD 022256Z AUTO 08003KT 10SM CLR 13/03 A3015 RMK AO2 SLP210 T01330033
KLGD 022156Z AUTO 00000KT 10SM CLR 13/03 A3015 RMK AO2 SLP210 T01330033
KLGD 022056Z AUTO 00000KT 10SM CLR 13/03 A3017 RMK AO2 SLP215 T01330033 56014
KLGD 021956Z AUTO 13007KT 10SM FEW046 13/04 A3018 RMK AO2 SLP220 T01280044
KLGD 021856Z AUTO 13004KT 10SM SCT034 12/04 A3020 RMK AO2 SLP227 T01220039
KLGD 021756Z AUTO 10005KT 10SM BKN036 11/04 A3021 RMK AO2 SLP232 T01110039 10117 20083 51024
KLGD 021656Z AUTO 20004KT 10SM OVC065 11/04 A3018 RMK AO2 SLP222 T01060039
KLGD 021556Z AUTO 27011KT 10SM BKN040 OVC060 09/04 A3017 RMK AO2 SLP219 T00940039
KLGD 021456Z AUTO 19014KT 10SM SCT060 BKN075 08/02 A3014 RMK AO2 SLP207 T00830022 53001
KLGD 021356Z AUTO 17020G24KT 10SM BKN065 09/02 A3011 RMK AO2 PK WND 18026/1258 SLP199 T00890022
KLGD 021256Z AUTO 17020KT 10SM OVC060 10/02 A3013 RMK AO2 SLP203 T01000022
KLGD 021156Z AUTO 19018G22KT 10SM OVC055 11/02 A3013 RMK AO2 PK WND 19026/1124 SLP204 T01060022 10111 20100 58006
KLGD 021056Z AUTO 18020KT 10SM OVC050 11/02 A3014 RMK AO2 SLP205 T01060022
KLGD 020956Z AUTO 16014G19KT 10SM OVC055 11/02 A3015 RMK AO2 SLP211 T01060022
KLGD 020856Z AUTO 17013KT 10SM CLR 11/02 A3015 RMK AO2 SLP210 T01060017 58007
KLGD 020756Z AUTO 17017KT 10SM CLR 11/02 A3016 RMK AO2 SLP214 T01060017 401330044
KLGD 020656Z AUTO 17012KT 10SM CLR 11/02 A3018 RMK AO2 SLP219 T01060017
KLGD 020556Z AUTO 16016G22KT 10SM CLR 11/02 A3018 RMK AO2 PK WND 18027/0459 SLP221 T01060017 10122 20100 55001
KLGD 020456Z AUTO 16019G28KT 10SM CLR 11/02 A3018 RMK AO2 PK WND 19028/0450 SLP221 T01060022